Time;durP1;ratioP1;P1;durP2;ratioP2;P2;SDS_P1;SDS_P2;PMS_P1;PMS_P2;Temp;Humidity;BMP_temperature;BMP_pressure;BME280_temperature;BME280_humidity;BME280_pressure;Samples;Min_cycle;Max_cycle;Signal;HPM_P1;HPM_P2
2023/12/11 00:00:49;;;;;;;33.55;5.63;;;;;;;;;;4890452;29;20040;-81
2023/12/11 00:03:15;;;;;;;28.25;5.25;;;;;;;;;;4876105;29;20069;-81
2023/12/11 00:05:41;;;;;;;29.60;6.07;;;;;;;;;;4876061;29;20041;-80
2023/12/11 00:08:07;;;;;;;33.25;5.20;;;;;;;;;;4874836;29;20060;-80
2023/12/11 00:10:34;;;;;;;31.52;5.55;;;;;;;;;;4858616;29;20049;-80
2023/12/11 00:13:00;;;;;;;34.30;5.60;;;;;;;;;;4886828;29;20045;-80
2023/12/11 00:15:26;;;;;;;34.83;6.32;;;;;;;;;;4890378;29;20529;-80
2023/12/11 00:17:52;;;;;;;35.03;5.75;;;;;;;;;;4890502;29;20465;-80
2023/12/11 00:20:18;;;;;;;26.58;5.15;;;;;;;;;;4890674;29;20598;-80
2023/12/11 00:22:44;;;;;;;34.55;5.82;;;;;;;;;;4889349;29;21061;-80
2023/12/11 00:25:10;;;;;;;44.22;6.45;;;;;;;;;;4889174;29;20057;-81
2023/12/11 00:27:36;;;;;;;32.97;5.97;;;;;;;;;;4885540;29;20057;-80
2023/12/11 00:30:02;;;;;;;38.25;6.55;;;;;;;;;;4878026;29;20100;-80
2023/12/11 00:32:28;;;;;;;27.67;5.55;;;;;;;;;;4873343;29;20076;-81
2023/12/11 00:34:54;;;;;;;27.80;4.88;;;;;;;;;;4859179;29;20045;-81
2023/12/11 00:37:20;;;;;;;27.30;5.65;;;;;;;;;;4890248;29;20048;-80
2023/12/11 00:39:46;;;;;;;33.17;5.35;;;;;;;;;;4890063;29;20057;-81
2023/12/11 00:42:12;;;;;;;33.05;5.68;;;;;;;;;;4873674;29;20187;-80
2023/12/11 00:44:39;;;;;;;24.88;4.78;;;;;;;;;;4874371;29;20360;-80
2023/12/11 00:47:05;;;;;;;25.65;5.18;;;;;;;;;;4873750;29;20058;-81
2023/12/11 00:49:31;;;;;;;28.25;5.80;;;;;;;;;;4874210;29;20053;-80
2023/12/11 00:51:57;;;;;;;31.00;5.28;;;;;;;;;;4873814;29;20049;-81
2023/12/11 00:54:23;;;;;;;33.70;6.80;;;;;;;;;;4874748;29;20156;-80
2023/12/11 00:56:49;;;;;;;28.98;5.65;;;;;;;;;;4875291;29;20037;-80
2023/12/11 00:59:15;;;;;;;27.73;5.15;;;;;;;;;;4874179;29;20049;-80
2023/12/11 01:01:42;;;;;;;27.20;4.72;;;;;;;;;;4857958;29;20060;-81
2023/12/11 01:04:08;;;;;;;30.75;5.65;;;;;;;;;;4874087;29;20621;-80
2023/12/11 01:06:34;;;;;;;33.53;5.35;;;;;;;;;;4889286;29;20095;-81
2023/12/11 01:09:00;;;;;;;29.40;5.07;;;;;;;;;;4890307;29;20084;-80
2023/12/11 01:11:26;;;;;;;28.58;4.45;;;;;;;;;;4873513;29;20060;-80
2023/12/11 01:13:52;;;;;;;22.33;4.13;;;;;;;;;;4873165;29;20115;-81
2023/12/11 01:16:18;;;;;;;29.30;4.80;;;;;;;;;;4876387;29;20512;-79
2023/12/11 01:18:44;;;;;;;31.17;6.20;;;;;;;;;;4887318;29;20629;-79
2023/12/11 01:21:10;;;;;;;29.08;4.68;;;;;;;;;;4872976;29;20041;-81
2023/12/11 01:23:37;;;;;;;31.52;5.07;;;;;;;;;;4879401;29;20200;-80
2023/12/11 01:26:03;;;;;;;31.13;5.22;;;;;;;;;;4871173;29;20068;-80
2023/12/11 01:28:29;;;;;;;28.52;5.25;;;;;;;;;;4874090;29;20057;-80
2023/12/11 01:30:55;;;;;;;30.60;5.70;;;;;;;;;;4871538;29;20049;-81
2023/12/11 01:33:21;;;;;;;23.48;4.82;;;;;;;;;;4856051;29;20392;-80
2023/12/11 01:35:47;;;;;;;28.63;4.93;;;;;;;;;;4856387;29;20674;-80
2023/12/11 01:38:13;;;;;;;26.70;4.75;;;;;;;;;;4872184;29;20081;-80
2023/12/11 01:40:39;;;;;;;30.33;4.88;;;;;;;;;;4889250;29;20104;-81
2023/12/11 01:43:15;;;;;;;34.60;4.80;;;;;;;;;;4889281;29;20149;-80
2023/12/11 01:45:41;;;;;;;26.00;4.97;;;;;;;;;;4890117;29;20041;-80
2023/12/11 01:48:10;;;;;;;29.30;5.55;;;;;;;;;;4874364;29;20092;-80
2023/12/11 01:50:37;;;;;;;21.90;5.07;;;;;;;;;;4858067;29;20131;-81
2023/12/11 01:53:03;;;;;;;38.33;6.75;;;;;;;;;;4885811;29;20060;-80
2023/12/11 01:55:31;;;;;;;36.22;5.78;;;;;;;;;;4855586;29;20080;-81
2023/12/11 01:57:58;;;;;;;33.10;5.63;;;;;;;;;;4882395;29;20128;-81
2023/12/11 02:00:24;;;;;;;32.90;5.57;;;;;;;;;;4872539;29;20109;-80
2023/12/11 02:02:52;;;;;;;33.03;5.85;;;;;;;;;;4872704;29;20101;-80
2023/12/11 02:05:18;;;;;;;29.27;6.05;;;;;;;;;;4864774;29;20499;-80
2023/12/11 02:07:45;;;;;;;38.08;6.78;;;;;;;;;;4885812;29;21474;-81
2023/12/11 02:10:11;;;;;;;36.13;5.60;;;;;;;;;;4889200;29;20133;-80
2023/12/11 02:12:37;;;;;;;28.63;5.80;;;;;;;;;;4873298;29;20053;-81
2023/12/11 02:15:03;;;;;;;36.13;5.82;;;;;;;;;;4888786;29;20599;-80
2023/12/11 02:17:29;;;;;;;33.00;6.47;;;;;;;;;;4872893;29;20407;-81
2023/12/11 02:19:56;;;;;;;35.63;6.07;;;;;;;;;;4874060;29;20420;-80
2023/12/11 02:22:22;;;;;;;31.08;5.18;;;;;;;;;;4871139;29;20476;-81
2023/12/11 02:24:49;;;;;;;30.77;6.75;;;;;;;;;;4873096;29;20079;-80
2023/12/11 02:27:16;;;;;;;26.98;6.32;;;;;;;;;;4867310;29;20065;-81
2023/12/11 02:29:42;;;;;;;37.92;6.40;;;;;;;;;;4871688;29;20045;-81
2023/12/11 02:32:08;;;;;;;38.38;6.28;;;;;;;;;;4872554;29;20108;-80
2023/12/11 02:34:34;;;;;;;35.90;6.85;;;;;;;;;;4873733;29;20376;-80
2023/12/11 02:37:00;;;;;;;39.08;6.80;;;;;;;;;;4877054;29;20045;-80
2023/12/11 02:39:26;;;;;;;40.25;6.57;;;;;;;;;;4878054;29;20552;-81
2023/12/11 02:41:52;;;;;;;33.05;5.43;;;;;;;;;;4875361;29;20059;-80
2023/12/11 02:44:19;;;;;;;31.20;6.28;;;;;;;;;;4891855;29;20460;-80
2023/12/11 02:46:45;;;;;;;38.08;7.30;;;;;;;;;;4861510;29;21158;-80
2023/12/11 02:49:11;;;;;;;32.15;6.72;;;;;;;;;;4861929;29;20049;-80
2023/12/11 02:51:36;;;;;;;34.15;5.85;;;;;;;;;;4881364;29;20045;-80
2023/12/11 02:54:02;;;;;;;40.05;6.90;;;;;;;;;;4891052;29;20132;-80
2023/12/11 02:56:29;;;;;;;31.02;6.10;;;;;;;;;;4876574;29;20060;-80
2023/12/11 02:58:55;;;;;;;32.58;7.10;;;;;;;;;;4877186;29;20053;-80
2023/12/11 03:01:21;;;;;;;31.42;5.70;;;;;;;;;;4875671;29;20064;-80
2023/12/11 03:03:47;;;;;;;32.38;6.43;;;;;;;;;;4877454;29;20049;-80
2023/12/11 03:06:22;;;;;;;39.08;7.05;;;;;;;;;;4875599;29;20592;-81
2023/12/11 03:08:48;;;;;;;32.78;6.70;;;;;;;;;;4874907;29;20053;-80
2023/12/11 03:11:14;;;;;;;39.00;6.25;;;;;;;;;;4875632;29;20044;-80
2023/12/11 03:13:40;;;;;;;35.50;6.32;;;;;;;;;;4874800;29;20448;-80
2023/12/11 03:16:06;;;;;;;36.10;6.22;;;;;;;;;;4876068;29;20057;-80
2023/12/11 03:18:32;;;;;;;32.60;5.95;;;;;;;;;;4876368;29;20413;-81
2023/12/11 03:20:58;;;;;;;34.28;6.38;;;;;;;;;;4876697;29;20238;-81
2023/12/11 03:23:24;;;;;;;38.75;6.20;;;;;;;;;;4874392;29;20280;-80
2023/12/11 03:25:50;;;;;;;37.10;6.55;;;;;;;;;;4860256;29;20554;-80
2023/12/11 03:28:16;;;;;;;38.55;6.88;;;;;;;;;;4890954;29;20053;-80
2023/12/11 03:30:42;;;;;;;35.47;6.90;;;;;;;;;;4875893;29;20059;-81
2023/12/11 03:33:08;;;;;;;33.58;6.60;;;;;;;;;;4859998;29;20053;-80
2023/12/11 03:35:34;;;;;;;39.45;6.63;;;;;;;;;;4876738;29;20168;-80
2023/12/11 03:38:00;;;;;;;34.67;6.53;;;;;;;;;;4842993;29;20050;-80
2023/12/11 03:40:26;;;;;;;34.47;6.50;;;;;;;;;;4875147;29;20363;-81
2023/12/11 03:42:52;;;;;;;35.13;6.57;;;;;;;;;;4874931;29;20045;-81
2023/12/11 03:45:18;;;;;;;32.38;5.53;;;;;;;;;;4859605;29;20236;-80
2023/12/11 03:47:44;;;;;;;37.35;5.80;;;;;;;;;;4859974;29;20558;-80
2023/12/11 03:50:12;;;;;;;39.63;6.85;;;;;;;;;;4876404;29;20239;-80
2023/12/11 03:52:39;;;;;;;30.77;7.15;;;;;;;;;;4859797;29;20690;-80
2023/12/11 03:55:06;;;;;;;32.00;6.80;;;;;;;;;;4875881;29;20602;-81
2023/12/11 03:57:33;;;;;;;41.75;6.97;;;;;;;;;;4890058;29;20060;-80
2023/12/11 04:00:00;;;;;;;28.80;6.03;;;;;;;;;;4890507;29;20144;-80
2023/12/11 04:02:26;;;;;;;35.42;6.93;;;;;;;;;;4890741;29;20810;-80
2023/12/11 04:04:52;;;;;;;35.85;6.40;;;;;;;;;;4883614;29;20052;-80
2023/12/11 04:07:18;;;;;;;30.40;6.25;;;;;;;;;;4886217;29;20052;-80
2023/12/11 04:09:44;;;;;;;30.48;5.88;;;;;;;;;;4876158;29;20037;-80
2023/12/11 04:12:10;;;;;;;31.85;5.65;;;;;;;;;;4890422;29;20046;-80
2023/12/11 04:14:36;;;;;;;28.88;5.78;;;;;;;;;;4874650;29;20045;-80
2023/12/11 04:17:02;;;;;;;30.40;5.25;;;;;;;;;;4859198;29;20081;-80
2023/12/11 04:19:28;;;;;;;35.58;5.50;;;;;;;;;;4875552;29;20057;-81
2023/12/11 04:21:54;;;;;;;33.33;5.88;;;;;;;;;;4875955;29;20052;-80
2023/12/11 04:24:20;;;;;;;30.38;5.43;;;;;;;;;;4875897;29;20048;-80
2023/12/11 04:26:47;;;;;;;32.83;5.75;;;;;;;;;;4874979;29;20057;-80
2023/12/11 04:29:13;;;;;;;28.77;6.05;;;;;;;;;;4874481;29;20260;-80
2023/12/11 04:31:39;;;;;;;33.88;6.28;;;;;;;;;;4868467;29;20054;-80
2023/12/11 04:34:05;;;;;;;28.80;5.25;;;;;;;;;;4859591;29;20122;-81
2023/12/11 04:36:31;;;;;;;28.13;5.65;;;;;;;;;;4873746;29;20436;-80
2023/12/11 04:38:57;;;;;;;29.63;4.80;;;;;;;;;;4874271;29;20044;-80
2023/12/11 04:41:23;;;;;;;29.83;4.97;;;;;;;;;;4873700;29;20113;-81
2023/12/11 04:43:49;;;;;;;29.08;5.40;;;;;;;;;;4874072;29;20750;-80
2023/12/11 04:46:15;;;;;;;33.38;5.70;;;;;;;;;;4870641;29;20085;-81
2023/12/11 04:48:41;;;;;;;27.80;5.60;;;;;;;;;;4874516;29;20455;-81
2023/12/11 04:51:07;;;;;;;25.35;4.90;;;;;;;;;;4864015;29;20038;-80
2023/12/11 04:53:33;;;;;;;32.17;5.47;;;;;;;;;;4884687;29;20202;-80
2023/12/11 04:55:59;;;;;;;31.77;6.00;;;;;;;;;;4873588;29;20502;-80
2023/12/11 04:58:25;;;;;;;24.70;4.70;;;;;;;;;;4887534;29;20137;-80
2023/12/11 05:00:51;;;;;;;26.02;5.15;;;;;;;;;;4889037;29;20391;-80
2023/12/11 05:03:17;;;;;;;35.78;6.78;;;;;;;;;;4861770;29;20053;-80
2023/12/11 05:05:43;;;;;;;30.15;5.07;;;;;;;;;;4873784;29;20077;-80
2023/12/11 05:08:09;;;;;;;27.00;4.95;;;;;;;;;;4887379;29;20108;-80
2023/12/11 05:10:35;;;;;;;31.35;4.57;;;;;;;;;;4889863;29;20083;-81
2023/12/11 05:13:01;;;;;;;27.63;5.95;;;;;;;;;;4873210;29;20060;-81
2023/12/11 05:15:27;;;;;;;30.63;6.25;;;;;;;;;;4887358;29;20053;-81
2023/12/11 05:17:53;;;;;;;28.98;5.57;;;;;;;;;;4873361;29;20551;-80
2023/12/11 05:20:19;;;;;;;34.63;5.50;;;;;;;;;;4890418;29;20196;-80
2023/12/11 05:22:45;;;;;;;33.22;5.45;;;;;;;;;;4889558;29;20060;-81
2023/12/11 05:25:11;;;;;;;34.05;5.80;;;;;;;;;;4873539;29;20045;-81
2023/12/11 05:27:37;;;;;;;30.52;4.82;;;;;;;;;;4888701;29;20060;-80
2023/12/11 05:30:04;;;;;;;31.90;5.47;;;;;;;;;;4888563;29;20052;-80
2023/12/11 05:32:30;;;;;;;28.05;5.03;;;;;;;;;;4889415;29;20160;-80
2023/12/11 05:34:56;;;;;;;30.05;5.82;;;;;;;;;;4873489;29;20136;-79
2023/12/11 05:37:22;;;;;;;35.90;5.95;;;;;;;;;;4872624;29;20879;-79
2023/12/11 05:39:49;;;;;;;28.90;5.25;;;;;;;;;;4873501;29;20060;-80
2023/12/11 05:42:15;;;;;;;30.80;5.63;;;;;;;;;;4873605;29;20087;-79
2023/12/11 05:44:42;;;;;;;31.45;6.93;;;;;;;;;;4872923;29;20115;-79
2023/12/11 05:47:08;;;;;;;23.73;4.22;;;;;;;;;;4871039;29;20484;-79
2023/12/11 05:49:34;;;;;;;23.42;4.50;;;;;;;;;;4858231;29;20136;-79
2023/12/11 05:52:00;;;;;;;23.80;4.63;;;;;;;;;;4886416;29;20073;-80
2023/12/11 05:54:26;;;;;;;25.88;5.25;;;;;;;;;;4873390;29;20045;-80
2023/12/11 05:56:52;;;;;;;27.98;4.93;;;;;;;;;;4873434;29;20052;-80
2023/12/11 05:59:18;;;;;;;23.75;4.32;;;;;;;;;;4888674;29;20685;-80
2023/12/11 06:01:45;;;;;;;24.02;5.63;;;;;;;;;;4887140;29;20053;-80
2023/12/11 06:04:11;;;;;;;25.92;4.43;;;;;;;;;;4873606;29;20512;-80
2023/12/11 06:06:37;;;;;;;20.25;4.03;;;;;;;;;;4873071;29;20117;-80
2023/12/11 06:09:03;;;;;;;27.88;4.90;;;;;;;;;;4857811;29;20080;-80
2023/12/11 06:11:29;;;;;;;29.75;5.72;;;;;;;;;;4861094;29;20196;-81
2023/12/11 06:13:55;;;;;;;28.67;4.25;;;;;;;;;;4885001;29;20482;-80
2023/12/11 06:16:21;;;;;;;25.80;5.25;;;;;;;;;;4871918;29;20108;-79
2023/12/11 06:18:47;;;;;;;23.00;4.93;;;;;;;;;;4857462;29;20045;-80
2023/12/11 06:21:20;;;;;;;25.77;4.95;;;;;;;;;;4871949;29;21132;-80
2023/12/11 06:23:46;;;;;;;26.38;5.47;;;;;;;;;;4872212;29;20164;-80
2023/12/11 06:26:24;;;;;;;26.05;5.63;;;;;;;;;;4870505;29;20052;-81
2023/12/11 06:28:50;;;;;;;25.02;5.00;;;;;;;;;;4872766;29;20057;-80
2023/12/11 06:31:16;;;;;;;25.60;4.97;;;;;;;;;;4873215;29;20125;-81
2023/12/11 06:33:42;;;;;;;26.60;5.35;;;;;;;;;;4872177;29;20843;-79
2023/12/11 06:36:08;;;;;;;26.55;5.05;;;;;;;;;;4872951;29;20045;-80
2023/12/11 06:38:34;;;;;;;32.35;5.85;;;;;;;;;;4886019;29;20049;-80
2023/12/11 06:41:00;;;;;;;26.08;5.30;;;;;;;;;;4870953;29;20104;-80
2023/12/11 06:43:26;;;;;;;30.05;6.43;;;;;;;;;;4886988;29;20057;-80
2023/12/11 06:45:52;;;;;;;20.83;4.50;;;;;;;;;;4873193;29;20049;-80
2023/12/11 06:48:18;;;;;;;27.30;4.97;;;;;;;;;;4861230;29;20710;-80
2023/12/11 06:50:45;;;;;;;28.33;5.50;;;;;;;;;;4880864;29;20206;-80
2023/12/11 06:53:11;;;;;;;23.90;5.00;;;;;;;;;;4872129;29;20136;-79
2023/12/11 06:55:37;;;;;;;30.73;5.32;;;;;;;;;;4870206;29;20537;-80
2023/12/11 06:58:03;;;;;;;28.05;5.32;;;;;;;;;;4882933;29;20053;-79
2023/12/11 07:00:30;;;;;;;21.48;5.13;;;;;;;;;;4888885;29;20479;-79
2023/12/11 07:02:56;;;;;;;23.02;4.55;;;;;;;;;;4889066;29;20132;-80
2023/12/11 07:05:22;;;;;;;22.65;4.32;;;;;;;;;;4888295;29;20045;-79
2023/12/11 07:07:48;;;;;;;27.77;4.90;;;;;;;;;;4888214;29;20105;-80
2023/12/11 07:10:14;;;;;;;24.95;5.15;;;;;;;;;;4879690;29;20096;-79
2023/12/11 07:12:42;;;;;;;28.50;6.20;;;;;;;;;;4855328;29;20049;-80
2023/12/11 07:15:08;;;;;;;26.40;5.68;;;;;;;;;;4888469;29;20124;-79
2023/12/11 07:17:34;;;;;;;28.92;4.47;;;;;;;;;;4874381;29;20097;-80
2023/12/11 07:20:00;;;;;;;22.88;4.20;;;;;;;;;;4886490;29;20429;-80
2023/12/11 07:22:26;;;;;;;29.58;4.43;;;;;;;;;;4872689;29;20069;-80
2023/12/11 07:24:52;;;;;;;24.80;4.47;;;;;;;;;;4876310;29;20056;-80
2023/12/11 07:27:18;;;;;;;23.20;4.80;;;;;;;;;;4875782;29;20075;-82
2023/12/11 07:29:44;;;;;;;28.65;5.40;;;;;;;;;;4876018;29;20045;-82
2023/12/11 07:32:10;;;;;;;22.75;4.78;;;;;;;;;;4876206;29;20057;-81
2023/12/11 07:34:37;;;;;;;24.00;4.93;;;;;;;;;;4875214;29;20053;-81
2023/12/11 07:37:04;;;;;;;34.92;4.53;;;;;;;;;;4870252;29;20049;-81
2023/12/11 07:39:30;;;;;;;15.80;4.00;;;;;;;;;;4869817;29;20060;-82
2023/12/11 07:41:56;;;;;;;15.02;3.65;;;;;;;;;;4860553;29;20053;-81
2023/12/11 07:44:22;;;;;;;20.50;3.83;;;;;;;;;;4876058;29;20819;-81
2023/12/11 07:46:49;;;;;;;20.05;3.75;;;;;;;;;;4875255;29;20052;-82
2023/12/11 07:49:15;;;;;;;23.23;4.28;;;;;;;;;;4875666;29;20052;-81
2023/12/11 07:51:41;;;;;;;23.88;4.57;;;;;;;;;;4859704;29;20507;-82
2023/12/11 07:54:08;;;;;;;22.75;4.63;;;;;;;;;;4868399;29;20117;-82
2023/12/11 07:56:35;;;;;;;16.17;3.08;;;;;;;;;;4884227;29;20496;-81
2023/12/11 07:59:02;;;;;;;14.95;4.22;;;;;;;;;;4891685;29;20057;-82
2023/12/11 08:01:31;;;;;;;19.75;3.70;;;;;;;;;;4890725;29;20057;-82
2023/12/11 08:04:01;;;;;;;12.52;3.13;;;;;;;;;;4875390;29;20061;-82
2023/12/11 08:06:27;;;;;;;11.77;3.08;;;;;;;;;;4890959;29;20053;-82
2023/12/11 08:08:53;;;;;;;13.70;3.60;;;;;;;;;;4890856;29;20052;-82
2023/12/11 08:11:21;;;;;;;11.10;2.80;;;;;;;;;;4898469;29;20064;-81
2023/12/11 08:13:47;;;;;;;12.77;3.28;;;;;;;;;;4875422;29;20055;-82
2023/12/11 08:16:14;;;;;;;13.40;3.20;;;;;;;;;;4875320;29;20057;-82
2023/12/11 08:18:44;;;;;;;16.52;3.00;;;;;;;;;;4858611;29;20060;-82
2023/12/11 08:21:10;;;;;;;8.93;2.60;;;;;;;;;;4874363;29;20093;-82
2023/12/11 08:23:38;;;;;;;12.20;2.70;;;;;;;;;;4890461;29;20045;-81
2023/12/11 08:26:04;;;;;;;11.82;2.97;;;;;;;;;;4876952;29;20061;-82
2023/12/11 08:28:30;;;;;;;13.73;2.58;;;;;;;;;;4890767;29;20049;-83
2023/12/11 08:30:56;;;;;;;14.45;3.20;;;;;;;;;;4886947;29;20053;-82
2023/12/11 08:33:22;;;;;;;12.65;2.53;;;;;;;;;;4859785;29;20057;-83
2023/12/11 08:35:48;;;;;;;9.50;2.60;;;;;;;;;;4875675;29;20055;-81
2023/12/11 08:38:15;;;;;;;9.32;2.20;;;;;;;;;;4875304;29;20045;-82
2023/12/11 08:40:41;;;;;;;8.38;3.33;;;;;;;;;;4884632;29;20056;-81
2023/12/11 08:43:08;;;;;;;10.48;2.40;;;;;;;;;;4888499;29;20063;-81
2023/12/11 08:45:34;;;;;;;8.18;2.13;;;;;;;;;;4871355;29;20218;-81
2023/12/11 08:48:00;;;;;;;6.90;2.28;;;;;;;;;;4875355;29;20120;-82
2023/12/11 08:50:26;;;;;;;12.25;2.47;;;;;;;;;;4887332;29;20045;-82
2023/12/11 08:52:52;;;;;;;6.38;2.20;;;;;;;;;;4875575;29;20079;-82
2023/12/11 08:55:18;;;;;;;5.50;2.03;;;;;;;;;;4875322;29;20638;-81
2023/12/11 08:57:44;;;;;;;8.07;2.35;;;;;;;;;;4873778;29;20097;-81
2023/12/11 09:00:11;;;;;;;8.93;2.30;;;;;;;;;;4878411;29;20524;-82
2023/12/11 09:02:37;;;;;;;7.20;2.47;;;;;;;;;;4861565;29;20041;-82
2023/12/11 09:05:04;;;;;;;8.10;2.42;;;;;;;;;;4872677;29;20064;-81
2023/12/11 09:07:30;;;;;;;7.90;1.90;;;;;;;;;;4860005;29;20053;-81
2023/12/11 09:09:57;;;;;;;8.75;1.80;;;;;;;;;;4874263;29;20491;-80
2023/12/11 09:12:23;;;;;;;7.07;1.70;;;;;;;;;;4856940;29;20048;-80
2023/12/11 09:14:49;;;;;;;10.52;2.20;;;;;;;;;;4875652;29;20178;-80
2023/12/11 09:17:15;;;;;;;9.70;2.17;;;;;;;;;;4874354;29;20539;-80
2023/12/11 09:19:41;;;;;;;8.43;2.40;;;;;;;;;;4874617;29;20471;-80
2023/12/11 09:22:07;;;;;;;7.97;2.70;;;;;;;;;;4872764;29;20041;-80
2023/12/11 09:24:33;;;;;;;12.43;2.83;;;;;;;;;;4889499;29;20649;-81
2023/12/11 09:26:59;;;;;;;20.23;3.28;;;;;;;;;;4873681;29;20511;-82
2023/12/11 09:29:25;;;;;;;14.10;3.58;;;;;;;;;;4875462;29;20416;-82
2023/12/11 09:31:52;;;;;;;14.15;3.80;;;;;;;;;;4871718;29;20625;-81
2023/12/11 09:34:18;;;;;;;11.40;3.00;;;;;;;;;;4889042;29;20133;-81
2023/12/11 09:36:44;;;;;;;16.05;3.53;;;;;;;;;;4886810;29;20053;-81
2023/12/11 09:39:10;;;;;;;12.07;3.20;;;;;;;;;;4863349;29;20052;-81
2023/12/11 09:41:36;;;;;;;17.45;3.67;;;;;;;;;;4873913;29;20051;-81
2023/12/11 09:44:03;;;;;;;13.70;2.55;;;;;;;;;;4874462;29;20049;-81
2023/12/11 09:46:32;;;;;;;13.75;2.47;;;;;;;;;;4873451;29;20132;-80
2023/12/11 09:48:58;;;;;;;14.73;2.78;;;;;;;;;;4874756;29;20428;-82
2023/12/11 09:51:24;;;;;;;12.45;2.67;;;;;;;;;;4874473;29;20415;-81
2023/12/11 09:53:52;;;;;;;9.88;2.50;;;;;;;;;;4873780;29;20059;-81
2023/12/11 09:56:18;;;;;;;9.75;2.45;;;;;;;;;;4872010;29;20080;-82
2023/12/11 09:58:45;;;;;;;14.70;2.63;;;;;;;;;;4871835;29;20053;-81
2023/12/11 10:01:13;;;;;;;9.82;2.30;;;;;;;;;;4888418;29;20464;-84
2023/12/11 10:03:39;;;;;;;13.30;2.25;;;;;;;;;;4874119;29;20061;-82
2023/12/11 10:06:05;;;;;;;11.93;2.45;;;;;;;;;;4857561;29;20056;-82
2023/12/11 10:08:39;;;;;;;12.30;2.55;;;;;;;;;;4825731;29;20049;-81
2023/12/11 10:11:16;;;;;;;9.75;2.30;;;;;;;;;;4866915;29;20399;-81
2023/12/11 10:13:42;;;;;;;14.50;2.63;;;;;;;;;;4873737;29;20056;-82
2023/12/11 10:16:28;;;;;;;10.68;2.53;;;;;;;;;;4872066;29;20055;-82
2023/12/11 10:18:54;;;;;;;12.52;2.85;;;;;;;;;;4869101;29;20053;-82
2023/12/11 10:21:20;;;;;;;13.07;2.50;;;;;;;;;;4861462;29;20049;-81
2023/12/11 10:24:09;;;;;;;13.45;3.05;;;;;;;;;;4874110;29;20063;-82
2023/12/11 10:26:39;;;;;;;14.23;2.88;;;;;;;;;;4869895;29;20056;-82
2023/12/11 10:29:18;;;;;;;15.38;2.95;;;;;;;;;;4874262;29;20056;-82
2023/12/11 10:31:44;;;;;;;15.63;2.70;;;;;;;;;;4858320;29;20128;-82
2023/12/11 10:34:10;;;;;;;15.45;2.65;;;;;;;;;;4858192;29;20056;-83
2023/12/11 10:36:46;;;;;;;13.02;2.45;;;;;;;;;;4875044;29;20105;-82
2023/12/11 10:39:13;;;;;;;15.05;2.45;;;;;;;;;;4874298;29;20051;-82
2023/12/11 10:41:39;;;;;;;14.13;2.60;;;;;;;;;;4858062;29;20468;-83
2023/12/11 10:44:05;;;;;;;16.45;2.80;;;;;;;;;;4874674;29;20041;-82
2023/12/11 10:46:31;;;;;;;14.77;2.47;;;;;;;;;;4875191;29;20056;-83
2023/12/11 10:49:00;;;;;;;10.73;2.35;;;;;;;;;;4872863;29;20446;-82
2023/12/11 10:51:28;;;;;;;12.00;2.65;;;;;;;;;;4858441;29;20476;-82
2023/12/11 10:53:54;;;;;;;15.13;2.85;;;;;;;;;;4856223;29;20064;-80
2023/12/11 10:56:20;;;;;;;15.90;2.97;;;;;;;;;;4875306;29;20057;-83
2023/12/11 10:58:48;;;;;;;11.55;2.17;;;;;;;;;;4876927;29;20064;-82
2023/12/11 11:01:15;;;;;;;12.57;2.47;;;;;;;;;;4877201;29;20056;-81
2023/12/11 11:03:41;;;;;;;9.23;2.00;;;;;;;;;;4877152;29;20077;-81
2023/12/11 11:06:08;;;;;;;11.68;2.58;;;;;;;;;;4876939;29;20415;-82
2023/12/11 11:08:45;;;;;;;15.63;2.63;;;;;;;;;;4859540;29;20096;-82
2023/12/11 11:11:23;;;;;;;14.52;2.70;;;;;;;;;;4886751;29;20060;-81
2023/12/11 11:14:11;;;;;;;12.25;2.75;;;;;;;;;;4873839;29;20140;-81
2023/12/11 11:16:57;;;;;;;13.60;2.60;;;;;;;;;;4873705;29;20110;-82
2023/12/11 11:19:24;;;;;;;12.05;2.42;;;;;;;;;;4873571;29;20057;-81
2023/12/11 11:22:08;;;;;;;15.75;3.33;;;;;;;;;;4865955;29;20084;-81
2023/12/11 11:24:35;;;;;;;14.80;2.65;;;;;;;;;;4890803;29;20052;-81
2023/12/11 11:27:04;;;;;;;12.88;2.72;;;;;;;;;;4888419;29;20415;-82
2023/12/11 11:29:43;;;;;;;12.68;3.10;;;;;;;;;;4877030;29;20120;-81
2023/12/11 11:32:09;;;;;;;14.48;3.03;;;;;;;;;;4876714;29;20486;-81
2023/12/11 11:34:42;;;;;;;11.70;2.38;;;;;;;;;;4860530;29;20049;-82
2023/12/11 11:37:08;;;;;;;;;;;;;;;;;;4875539;29;20088;-81
2023/12/11 11:39:53;;;;;;;14.38;2.38;;;;;;;;;;4892277;29;19970;-81
2023/12/11 11:42:19;;;;;;;13.80;3.20;;;;;;;;;;4873769;29;20063;-81
2023/12/11 11:44:45;;;;;;;17.48;2.60;;;;;;;;;;4879921;29;20049;-82
2023/12/11 11:47:17;;;;;;;12.70;3.08;;;;;;;;;;4866406;29;20099;-81
2023/12/11 11:49:43;;;;;;;15.25;3.00;;;;;;;;;;4869812;29;20063;-81
2023/12/11 11:52:11;;;;;;;15.00;3.10;;;;;;;;;;4871396;29;20092;-81
2023/12/11 11:54:37;;;;;;;15.02;4.00;;;;;;;;;;4887512;29;20189;-81
2023/12/11 11:57:04;;;;;;;16.70;3.42;;;;;;;;;;4869197;29;20059;-81
2023/12/11 11:59:30;;;;;;;16.80;3.70;;;;;;;;;;4869979;29;20546;-81
2023/12/11 12:01:56;;;;;;;18.95;4.35;;;;;;;;;;4873451;29;20052;-81
2023/12/11 12:04:29;;;;;;;16.80;3.65;;;;;;;;;;4885473;29;20044;-82
2023/12/11 12:07:01;;;;;;;13.18;3.38;;;;;;;;;;4871632;29;20057;-81
2023/12/11 12:09:27;;;;;;;18.93;3.33;;;;;;;;;;4891846;29;20515;-81
2023/12/11 12:11:53;;;;;;;16.10;3.38;;;;;;;;;;4889554;29;20159;-82
2023/12/11 12:14:20;;;;;;;16.65;3.83;;;;;;;;;;4873778;29;20060;-81
2023/12/11 12:16:46;;;;;;;17.95;4.00;;;;;;;;;;4858324;29;20140;-82
2023/12/11 12:19:12;;;;;;;14.60;3.00;;;;;;;;;;4871096;29;20096;-81
2023/12/11 12:21:48;;;;;;;16.95;3.33;;;;;;;;;;4884505;29;20523;-81
2023/12/11 12:24:14;;;;;;;12.95;3.33;;;;;;;;;;4889125;29;20480;-81
2023/12/11 12:26:42;;;;;;;11.65;3.28;;;;;;;;;;4888833;29;20092;-81
2023/12/11 12:29:09;;;;;;;12.52;2.63;;;;;;;;;;4875096;29;20555;-82
2023/12/11 12:31:36;;;;;;;11.68;2.42;;;;;;;;;;4890017;29;20061;-82
2023/12/11 12:34:02;;;;;;;8.52;2.20;;;;;;;;;;4870886;29;20052;-82
2023/12/11 12:36:30;;;;;;;10.50;2.63;;;;;;;;;;4886963;29;20053;-82
2023/12/11 12:38:56;;;;;;;8.02;2.10;;;;;;;;;;4876611;29;20076;-82
2023/12/11 12:41:22;;;;;;;9.63;2.28;;;;;;;;;;4890380;29;20052;-81
2023/12/11 12:43:48;;;;;;;8.60;2.10;;;;;;;;;;4874560;29;20139;-82
2023/12/11 12:46:14;;;;;;;9.60;2.08;;;;;;;;;;4874748;29;20898;-81
2023/12/11 12:48:41;;;;;;;8.65;2.08;;;;;;;;;;4889258;29;20076;-81
2023/12/11 12:51:09;;;;;;;4.90;1.35;;;;;;;;;;4891678;29;20057;-82
2023/12/11 12:53:45;;;;;;;9.20;2.00;;;;;;;;;;4889418;29;20053;-82
2023/12/11 12:56:22;;;;;;;5.72;1.48;;;;;;;;;;4884236;29;20049;-81
2023/12/11 12:58:48;;;;;;;6.45;1.20;;;;;;;;;;4873428;29;20049;-83
2023/12/11 13:01:15;;;;;;;5.97;1.23;;;;;;;;;;4889312;29;20041;-83
2023/12/11 13:03:41;;;;;;;6.95;1.50;;;;;;;;;;4889893;29;20045;-83
2023/12/11 13:06:07;;;;;;;6.30;1.27;;;;;;;;;;4889512;29;20056;-83
2023/12/11 13:08:43;;;;;;;7.45;1.48;;;;;;;;;;4875278;29;20053;-83
2023/12/11 13:11:09;;;;;;;8.35;1.50;;;;;;;;;;4872467;29;20101;-83
2023/12/11 13:13:35;;;;;;;10.15;1.65;;;;;;;;;;4876013;29;20388;-84
2023/12/11 13:16:02;;;;;;;4.53;1.02;;;;;;;;;;4875287;29;20052;-83
2023/12/11 13:18:35;;;;;;;4.43;1.10;;;;;;;;;;4888862;29;20057;-83
2023/12/11 13:21:02;;;;;;;5.63;1.20;;;;;;;;;;4889099;29;20460;-83
2023/12/11 13:23:28;;;;;;;6.75;1.10;;;;;;;;;;4874931;29;20507;-84
2023/12/11 13:25:54;;;;;;;11.48;1.70;;;;;;;;;;4888679;29;20099;-83
2023/12/11 13:28:20;;;;;;;6.85;1.23;;;;;;;;;;4887497;29;20157;-82
2023/12/11 13:30:46;;;;;;;6.93;1.35;;;;;;;;;;4873503;29;20057;-82
2023/12/11 13:33:12;;;;;;;4.28;1.30;;;;;;;;;;4874000;29;20495;-83
2023/12/11 13:35:38;;;;;;;9.10;1.52;;;;;;;;;;4889930;29;20550;-84
2023/12/11 13:38:04;;;;;;;6.30;2.13;;;;;;;;;;4890067;29;20053;-83
2023/12/11 13:40:30;;;;;;;5.00;1.42;;;;;;;;;;4874044;29;20861;-83
2023/12/11 13:42:56;;;;;;;6.40;1.45;;;;;;;;;;4876038;29;20483;-83
2023/12/11 13:45:22;;;;;;;8.05;1.65;;;;;;;;;;4873952;29;20824;-83
2023/12/11 13:47:48;;;;;;;3.97;1.08;;;;;;;;;;4873504;29;20049;-83
2023/12/11 13:50:14;;;;;;;7.20;1.10;;;;;;;;;;4873329;29;20464;-83
2023/12/11 13:52:40;;;;;;;6.38;1.38;;;;;;;;;;4887877;29;20044;-83
2023/12/11 13:55:07;;;;;;;4.15;1.00;;;;;;;;;;4874968;29;20112;-82
2023/12/11 13:57:35;;;;;;;6.68;1.50;;;;;;;;;;4887203;29;20392;-82
2023/12/11 14:00:02;;;;;;;7.85;1.20;;;;;;;;;;4873609;29;20132;-82
2023/12/11 14:02:28;;;;;;;3.17;1.00;;;;;;;;;;4889063;29;20064;-83
2023/12/11 14:04:55;;;;;;;4.88;1.00;;;;;;;;;;4886402;29;20052;-83
2023/12/11 14:07:21;;;;;;;5.55;1.00;;;;;;;;;;4873944;29;20061;-83
2023/12/11 14:09:47;;;;;;;4.85;0.90;;;;;;;;;;4875261;29;20049;-83
2023/12/11 14:12:13;;;;;;;5.50;0.90;;;;;;;;;;4854707;29;20067;-83
2023/12/11 14:14:39;;;;;;;3.95;0.90;;;;;;;;;;4855733;29;20042;-83
2023/12/11 14:17:05;;;;;;;8.18;1.98;;;;;;;;;;4864803;29;20131;-83
2023/12/11 14:19:31;;;;;;;6.10;1.13;;;;;;;;;;4877264;29;20212;-83
2023/12/11 14:21:57;;;;;;;5.90;1.38;;;;;;;;;;4861061;29;20674;-83
2023/12/11 14:24:25;;;;;;;6.28;1.08;;;;;;;;;;4873611;29;20519;-83
2023/12/11 14:26:51;;;;;;;4.90;1.00;;;;;;;;;;4871951;29;20057;-83
2023/12/11 14:29:17;;;;;;;6.53;1.05;;;;;;;;;;4872249;29;20061;-83
2023/12/11 14:31:44;;;;;;;5.75;1.45;;;;;;;;;;4878388;29;20491;-83